sensor_id;sensor_type;location;lat;lon;timestamp;temperature;humidity
17795;DHT22;9021;50.882;4.326;2023-02-25T00:00:44;6.60;99.90
17795;DHT22;9021;50.882;4.326;2023-02-25T00:03:11;6.70;99.90
17795;DHT22;9021;50.882;4.326;2023-02-25T00:05:40;6.70;99.90
17795;DHT22;9021;50.882;4.326;2023-02-25T00:08:06;6.90;99.90
17795;DHT22;9021;50.882;4.326;2023-02-25T00:10:32;6.80;99.90
17795;DHT22;9021;50.882;4.326;2023-02-25T00:12:59;6.70;99.90
17795;DHT22;9021;50.882;4.326;2023-02-25T00:15:24;6.60;99.90
17795;DHT22;9021;50.882;4.326;2023-02-25T00:17:50;6.70;99.90
17795;DHT22;9021;50.882;4.326;2023-02-25T00:20:16;6.70;99.90
17795;DHT22;9021;50.882;4.326;2023-02-25T00:22:45;6.70;99.90
17795;DHT22;9021;50.882;4.326;2023-02-25T00:25:11;6.70;99.90
17795;DHT22;9021;50.882;4.326;2023-02-25T00:27:38;6.70;99.90
17795;DHT22;9021;50.882;4.326;2023-02-25T00:30:04;6.70;99.90
17795;DHT22;9021;50.882;4.326;2023-02-25T00:32:30;6.70;99.90
17795;DHT22;9021;50.882;4.326;2023-02-25T00:34:55;6.70;99.90
17795;DHT22;9021;50.882;4.326;2023-02-25T00:37:21;7.50;99.90
17795;DHT22;9021;50.882;4.326;2023-02-25T00:39:47;6.60;99.90
17795;DHT22;9021;50.882;4.326;2023-02-25T00:42:15;6.60;99.90
17795;DHT22;9021;50.882;4.326;2023-02-25T00:44:45;6.60;99.90
17795;DHT22;9021;50.882;4.326;2023-02-25T00:47:11;6.40;99.90
17795;DHT22;9021;50.882;4.326;2023-02-25T00:49:38;6.40;99.90
17795;DHT22;9021;50.882;4.326;2023-02-25T00:52:04;6.50;99.90
17795;DHT22;9021;50.882;4.326;2023-02-25T00:54:32;6.60;99.90
17795;DHT22;9021;50.882;4.326;2023-02-25T00:56:57;6.70;99.90
17795;DHT22;9021;50.882;4.326;2023-02-25T00:59:23;6.70;99.90
17795;DHT22;9021;50.882;4.326;2023-02-25T01:01:49;6.60;99.90
17795;DHT22;9021;50.882;4.326;2023-02-25T01:04:15;6.70;99.90
17795;DHT22;9021;50.882;4.326;2023-02-25T01:06:40;6.70;99.90
17795;DHT22;9021;50.882;4.326;2023-02-25T01:09:07;7.30;99.90
17795;DHT22;9021;50.882;4.326;2023-02-25T01:11:39;6.70;99.90
17795;DHT22;9021;50.882;4.326;2023-02-25T01:14:09;6.70;99.90
17795;DHT22;9021;50.882;4.326;2023-02-25T01:16:35;6.70;99.90
17795;DHT22;9021;50.882;4.326;2023-02-25T01:19:04;6.70;99.90
17795;DHT22;9021;50.882;4.326;2023-02-25T01:21:36;6.80;99.90
17795;DHT22;9021;50.882;4.326;2023-02-25T01:24:13;6.80;99.90
17795;DHT22;9021;50.882;4.326;2023-02-25T01:26:41;6.80;99.90
17795;DHT22;9021;50.882;4.326;2023-02-25T01:29:08;6.90;99.90
17795;DHT22;9021;50.882;4.326;2023-02-25T01:31:35;6.90;99.90
17795;DHT22;9021;50.882;4.326;2023-02-25T01:34:04;6.90;99.90
17795;DHT22;9021;50.882;4.326;2023-02-25T01:36:32;6.90;99.90
17795;DHT22;9021;50.882;4.326;2023-02-25T01:38:58;6.90;99.90
17795;DHT22;9021;50.882;4.326;2023-02-25T01:41:26;6.80;99.90
17795;DHT22;9021;50.882;4.326;2023-02-25T01:44:28;6.80;99.90
17795;DHT22;9021;50.882;4.326;2023-02-25T01:46:54;6.90;99.90
17795;DHT22;9021;50.882;4.326;2023-02-25T01:49:41;6.70;99.90
17795;DHT22;9021;50.882;4.326;2023-02-25T01:52:16;6.70;99.90
17795;DHT22;9021;50.882;4.326;2023-02-25T01:54:45;6.70;99.90
17795;DHT22;9021;50.882;4.326;2023-02-25T01:57:14;6.70;99.90
17795;DHT22;9021;50.882;4.326;2023-02-25T01:59:42;6.60;99.90
17795;DHT22;9021;50.882;4.326;2023-02-25T02:02:11;6.60;99.90
17795;DHT22;9021;50.882;4.326;2023-02-25T02:04:37;6.60;99.90
17795;DHT22;9021;50.882;4.326;2023-02-25T02:07:04;6.40;99.90
17795;DHT22;9021;50.882;4.326;2023-02-25T02:09:31;6.60;99.90
17795;DHT22;9021;50.882;4.326;2023-02-25T02:11:59;6.40;99.90
17795;DHT22;9021;50.882;4.326;2023-02-25T02:14:32;6.30;99.90
17795;DHT22;9021;50.882;4.326;2023-02-25T02:22:35;6.40;99.90
17795;DHT22;9021;50.882;4.326;2023-02-25T02:41:35;6.60;99.90
17795;DHT22;9021;50.882;4.326;2023-02-25T02:44:04;6.50;99.90
17795;DHT22;9021;50.882;4.326;2023-02-25T02:46:46;6.50;99.90
17795;DHT22;9021;50.882;4.326;2023-02-25T02:49:19;6.50;99.90
17795;DHT22;9021;50.882;4.326;2023-02-25T02:52:05;6.50;99.90
17795;DHT22;9021;50.882;4.326;2023-02-25T02:54:38;6.60;99.90
17795;DHT22;9021;50.882;4.326;2023-02-25T02:57:08;6.70;99.90
17795;DHT22;9021;50.882;4.326;2023-02-25T02:59:42;6.70;99.90
17795;DHT22;9021;50.882;4.326;2023-02-25T03:02:13;6.70;99.90
17795;DHT22;9021;50.882;4.326;2023-02-25T03:04:41;6.70;99.90
17795;DHT22;9021;50.882;4.326;2023-02-25T03:07:10;6.70;99.90
17795;DHT22;9021;50.882;4.326;2023-02-25T03:09:58;6.70;99.90
17795;DHT22;9021;50.882;4.326;2023-02-25T03:12:25;6.70;99.90
17795;DHT22;9021;50.882;4.326;2023-02-25T03:14:50;6.60;99.90
17795;DHT22;9021;50.882;4.326;2023-02-25T03:17:28;6.70;99.90
17795;DHT22;9021;50.882;4.326;2023-02-25T03:20:09;6.70;99.90
17795;DHT22;9021;50.882;4.326;2023-02-25T03:22:40;6.70;99.90
17795;DHT22;9021;50.882;4.326;2023-02-25T03:28:31;6.70;99.90
17795;DHT22;9021;50.882;4.326;2023-02-25T03:31:24;6.60;99.90
17795;DHT22;9021;50.882;4.326;2023-02-25T03:34:02;6.50;99.90
17795;DHT22;9021;50.882;4.326;2023-02-25T03:36:41;6.50;99.90
17795;DHT22;9021;50.882;4.326;2023-02-25T03:39:11;6.60;99.90
17795;DHT22;9021;50.882;4.326;2023-02-25T03:41:41;6.60;99.90
17795;DHT22;9021;50.882;4.326;2023-02-25T03:44:14;6.60;99.90
17795;DHT22;9021;50.882;4.326;2023-02-25T03:46:42;6.70;99.90
17795;DHT22;9021;50.882;4.326;2023-02-25T03:49:11;6.80;99.90
17795;DHT22;9021;50.882;4.326;2023-02-25T03:51:40;6.90;99.90
17795;DHT22;9021;50.882;4.326;2023-02-25T03:54:09;6.90;99.90
17795;DHT22;9021;50.882;4.326;2023-02-25T03:56:43;7.00;99.90
17795;DHT22;9021;50.882;4.326;2023-02-25T03:59:09;6.90;99.90
17795;DHT22;9021;50.882;4.326;2023-02-25T04:01:35;6.90;99.90
17795;DHT22;9021;50.882;4.326;2023-02-25T04:04:02;6.80;99.90
17795;DHT22;9021;50.882;4.326;2023-02-25T04:06:27;6.70;99.90
17795;DHT22;9021;50.882;4.326;2023-02-25T04:08:53;6.60;99.90
17795;DHT22;9021;50.882;4.326;2023-02-25T04:11:19;6.60;99.90
17795;DHT22;9021;50.882;4.326;2023-02-25T04:13:45;6.70;99.90
17795;DHT22;9021;50.882;4.326;2023-02-25T04:16:10;6.80;99.90
17795;DHT22;9021;50.882;4.326;2023-02-25T04:18:36;6.90;99.90
17795;DHT22;9021;50.882;4.326;2023-02-25T04:21:07;7.00;99.90
17795;DHT22;9021;50.882;4.326;2023-02-25T04:23:34;6.90;99.90
17795;DHT22;9021;50.882;4.326;2023-02-25T04:26:00;6.90;99.90
17795;DHT22;9021;50.882;4.326;2023-02-25T04:28:25;6.90;99.90
17795;DHT22;9021;50.882;4.326;2023-02-25T04:30:51;6.90;99.90
17795;DHT22;9021;50.882;4.326;2023-02-25T04:33:16;7.00;99.90
17795;DHT22;9021;50.882;4.326;2023-02-25T04:35:42;7.00;99.90
17795;DHT22;9021;50.882;4.326;2023-02-25T04:38:08;6.90;99.90
17795;DHT22;9021;50.882;4.326;2023-02-25T04:40:34;6.90;99.90
17795;DHT22;9021;50.882;4.326;2023-02-25T04:43:00;6.90;99.90
17795;DHT22;9021;50.882;4.326;2023-02-25T04:45:25;6.80;99.90
17795;DHT22;9021;50.882;4.326;2023-02-25T04:47:52;6.80;99.90
17795;DHT22;9021;50.882;4.326;2023-02-25T04:50:18;6.80;99.90
17795;DHT22;9021;50.882;4.326;2023-02-25T04:52:44;6.70;99.90
17795;DHT22;9021;50.882;4.326;2023-02-25T04:55:10;6.80;99.90
17795;DHT22;9021;50.882;4.326;2023-02-25T04:57:37;6.80;99.90
17795;DHT22;9021;50.882;4.326;2023-02-25T05:00:13;6.90;99.90
17795;DHT22;9021;50.882;4.326;2023-02-25T05:02:41;6.90;99.90
17795;DHT22;9021;50.882;4.326;2023-02-25T05:05:08;6.80;99.90
17795;DHT22;9021;50.882;4.326;2023-02-25T05:07:34;6.80;99.90
17795;DHT22;9021;50.882;4.326;2023-02-25T05:09:59;7.00;99.90
17795;DHT22;9021;50.882;4.326;2023-02-25T05:12:25;6.90;99.90
17795;DHT22;9021;50.882;4.326;2023-02-25T05:14:51;7.00;99.90
17795;DHT22;9021;50.882;4.326;2023-02-25T05:17:16;7.00;99.90
17795;DHT22;9021;50.882;4.326;2023-02-25T05:19:42;6.90;99.90
17795;DHT22;9021;50.882;4.326;2023-02-25T05:22:08;6.90;99.90
17795;DHT22;9021;50.882;4.326;2023-02-25T05:24:33;6.90;99.90
17795;DHT22;9021;50.882;4.326;2023-02-25T05:26:59;7.00;99.90
17795;DHT22;9021;50.882;4.326;2023-02-25T05:29:32;7.00;99.90
17795;DHT22;9021;50.882;4.326;2023-02-25T05:31:58;7.00;99.90
17795;DHT22;9021;50.882;4.326;2023-02-25T05:34:24;6.90;99.90
17795;DHT22;9021;50.882;4.326;2023-02-25T05:36:50;6.80;99.90
17795;DHT22;9021;50.882;4.326;2023-02-25T05:39:15;6.80;99.90
17795;DHT22;9021;50.882;4.326;2023-02-25T05:41:41;6.80;99.90
17795;DHT22;9021;50.882;4.326;2023-02-25T05:44:07;6.70;99.90
17795;DHT22;9021;50.882;4.326;2023-02-25T05:46:33;6.70;99.90
17795;DHT22;9021;50.882;4.326;2023-02-25T05:48:59;6.70;99.90
17795;DHT22;9021;50.882;4.326;2023-02-25T05:51:25;6.80;99.90
17795;DHT22;9021;50.882;4.326;2023-02-25T05:53:51;6.90;99.90
17795;DHT22;9021;50.882;4.326;2023-02-25T05:56:19;6.90;99.90
17795;DHT22;9021;50.882;4.326;2023-02-25T05:58:45;6.90;99.90
17795;DHT22;9021;50.882;4.326;2023-02-25T06:01:15;6.90;99.90
17795;DHT22;9021;50.882;4.326;2023-02-25T06:03:42;6.90;99.90
17795;DHT22;9021;50.882;4.326;2023-02-25T06:06:10;6.80;99.90
17795;DHT22;9021;50.882;4.326;2023-02-25T06:08:40;6.80;99.90
17795;DHT22;9021;50.882;4.326;2023-02-25T06:11:08;7.00;99.90
17795;DHT22;9021;50.882;4.326;2023-02-25T06:13:34;7.00;99.90
17795;DHT22;9021;50.882;4.326;2023-02-25T06:16:02;6.80;99.90
17795;DHT22;9021;50.882;4.326;2023-02-25T06:18:29;6.80;99.90
17795;DHT22;9021;50.882;4.326;2023-02-25T06:20:54;6.70;99.90
17795;DHT22;9021;50.882;4.326;2023-02-25T06:23:20;6.70;99.90
17795;DHT22;9021;50.882;4.326;2023-02-25T06:25:45;6.60;99.90
17795;DHT22;9021;50.882;4.326;2023-02-25T06:28:11;6.60;99.90
17795;DHT22;9021;50.882;4.326;2023-02-25T06:30:40;6.70;99.90
17795;DHT22;9021;50.882;4.326;2023-02-25T06:33:05;6.60;99.90
17795;DHT22;9021;50.882;4.326;2023-02-25T06:35:33;6.80;99.90
17795;DHT22;9021;50.882;4.326;2023-02-25T06:37:58;6.80;99.90
17795;DHT22;9021;50.882;4.326;2023-02-25T06:40:25;6.60;99.90
17795;DHT22;9021;50.882;4.326;2023-02-25T06:42:50;6.80;99.90
17795;DHT22;9021;50.882;4.326;2023-02-25T06:45:17;6.80;99.90
17795;DHT22;9021;50.882;4.326;2023-02-25T06:47:42;6.80;99.90
17795;DHT22;9021;50.882;4.326;2023-02-25T06:50:08;6.80;99.90
17795;DHT22;9021;50.882;4.326;2023-02-25T06:52:34;6.80;99.90
17795;DHT22;9021;50.882;4.326;2023-02-25T06:54:59;7.00;99.90
17795;DHT22;9021;50.882;4.326;2023-02-25T06:57:25;6.80;99.90
17795;DHT22;9021;50.882;4.326;2023-02-25T06:59:51;6.90;99.90
17795;DHT22;9021;50.882;4.326;2023-02-25T07:02:18;6.90;99.90
17795;DHT22;9021;50.882;4.326;2023-02-25T07:04:43;6.80;99.90
17795;DHT22;9021;50.882;4.326;2023-02-25T07:07:09;6.80;99.90
17795;DHT22;9021;50.882;4.326;2023-02-25T07:09:34;6.80;99.90
17795;DHT22;9021;50.882;4.326;2023-02-25T07:12:00;6.80;99.90
17795;DHT22;9021;50.882;4.326;2023-02-25T07:14:26;6.80;99.90
17795;DHT22;9021;50.882;4.326;2023-02-25T07:16:51;6.80;99.90
17795;DHT22;9021;50.882;4.326;2023-02-25T07:19:17;6.90;99.90
17795;DHT22;9021;50.882;4.326;2023-02-25T07:21:43;7.20;99.90
17795;DHT22;9021;50.882;4.326;2023-02-25T07:24:09;7.60;99.90
17795;DHT22;9021;50.882;4.326;2023-02-25T07:26:36;7.90;99.90
17795;DHT22;9021;50.882;4.326;2023-02-25T07:29:04;8.10;99.90
17795;DHT22;9021;50.882;4.326;2023-02-25T07:31:30;8.10;99.90
17795;DHT22;9021;50.882;4.326;2023-02-25T07:33:57;8.00;99.90
17795;DHT22;9021;50.882;4.326;2023-02-25T07:36:29;7.90;99.90
17795;DHT22;9021;50.882;4.326;2023-02-25T07:38:58;7.80;99.90
17795;DHT22;9021;50.882;4.326;2023-02-25T07:41:24;7.80;99.90
17795;DHT22;9021;50.882;4.326;2023-02-25T07:43:49;7.70;99.90
17795;DHT22;9021;50.882;4.326;2023-02-25T07:46:15;7.70;99.90
17795;DHT22;9021;50.882;4.326;2023-02-25T07:48:41;7.70;99.90
17795;DHT22;9021;50.882;4.326;2023-02-25T07:51:12;7.70;99.90
17795;DHT22;9021;50.882;4.326;2023-02-25T07:53:40;7.40;99.90
17795;DHT22;9021;50.882;4.326;2023-02-25T07:56:06;8.10;99.90
17795;DHT22;9021;50.882;4.326;2023-02-25T07:58:32;8.30;99.90
17795;DHT22;9021;50.882;4.326;2023-02-25T08:00:58;8.40;99.90
17795;DHT22;9021;50.882;4.326;2023-02-25T08:03:24;8.50;99.90
17795;DHT22;9021;50.882;4.326;2023-02-25T08:05:51;8.90;99.90
17795;DHT22;9021;50.882;4.326;2023-02-25T08:08:21;9.10;99.90
17795;DHT22;9021;50.882;4.326;2023-02-25T08:10:47;9.50;99.90
17795;DHT22;9021;50.882;4.326;2023-02-25T08:13:14;10.10;99.90
17795;DHT22;9021;50.882;4.326;2023-02-25T08:15:43;10.70;99.90
17795;DHT22;9021;50.882;4.326;2023-02-25T08:18:09;11.20;99.90
17795;DHT22;9021;50.882;4.326;2023-02-25T08:20:35;11.70;99.90
17795;DHT22;9021;50.882;4.326;2023-02-25T08:23:01;12.20;99.90
17795;DHT22;9021;50.882;4.326;2023-02-25T08:25:27;12.50;99.90
17795;DHT22;9021;50.882;4.326;2023-02-25T08:27:52;12.90;99.90
17795;DHT22;9021;50.882;4.326;2023-02-25T08:30:18;13.40;99.90
17795;DHT22;9021;50.882;4.326;2023-02-25T08:32:46;13.60;99.00
17795;DHT22;9021;50.882;4.326;2023-02-25T08:35:12;13.50;99.20
17795;DHT22;9021;50.882;4.326;2023-02-25T08:37:38;13.00;99.90
17795;DHT22;9021;50.882;4.326;2023-02-25T08:40:04;13.20;99.60
17795;DHT22;9021;50.882;4.326;2023-02-25T08:42:34;13.30;99.10
17795;DHT22;9021;50.882;4.326;2023-02-25T08:45:00;13.70;98.00
17795;DHT22;9021;50.882;4.326;2023-02-25T08:47:26;13.90;97.70
17795;DHT22;9021;50.882;4.326;2023-02-25T08:49:51;13.90;97.20
17795;DHT22;9021;50.882;4.326;2023-02-25T08:52:17;13.80;97.00
17795;DHT22;9021;50.882;4.326;2023-02-25T08:54:42;13.80;96.80
17795;DHT22;9021;50.882;4.326;2023-02-25T08:57:08;13.20;97.10
17795;DHT22;9021;50.882;4.326;2023-02-25T08:59:34;12.70;97.30
17795;DHT22;9021;50.882;4.326;2023-02-25T09:02:06;12.30;97.30
17795;DHT22;9021;50.882;4.326;2023-02-25T09:04:33;11.90;98.10
17795;DHT22;9021;50.882;4.326;2023-02-25T09:06:59;11.80;98.30
17795;DHT22;9021;50.882;4.326;2023-02-25T09:09:25;11.70;98.50
17795;DHT22;9021;50.882;4.326;2023-02-25T09:11:52;11.70;99.00
17795;DHT22;9021;50.882;4.326;2023-02-25T09:14:18;11.70;99.00
17795;DHT22;9021;50.882;4.326;2023-02-25T09:16:44;11.50;99.40
17795;DHT22;9021;50.882;4.326;2023-02-25T09:19:09;11.30;99.70
17795;DHT22;9021;50.882;4.326;2023-02-25T09:21:37;11.00;99.90
17795;DHT22;9021;50.882;4.326;2023-02-25T09:24:05;10.80;99.80
17795;DHT22;9021;50.882;4.326;2023-02-25T09:26:31;10.60;99.80
17795;DHT22;9021;50.882;4.326;2023-02-25T09:28:59;10.40;99.90
17795;DHT22;9021;50.882;4.326;2023-02-25T09:31:25;10.30;99.90
17795;DHT22;9021;50.882;4.326;2023-02-25T09:33:51;10.40;99.90
17795;DHT22;9021;50.882;4.326;2023-02-25T09:36:18;10.50;99.90
17795;DHT22;9021;50.882;4.326;2023-02-25T09:38:46;10.60;99.90
17795;DHT22;9021;50.882;4.326;2023-02-25T09:44:04;10.60;99.90
17795;DHT22;9021;50.882;4.326;2023-02-25T09:46:32;10.80;99.90
17795;DHT22;9021;50.882;4.326;2023-02-25T09:49:32;11.00;99.90
17795;DHT22;9021;50.882;4.326;2023-02-25T09:52:10;11.20;99.90
17795;DHT22;9021;50.882;4.326;2023-02-25T09:54:43;11.40;99.90
17795;DHT22;9021;50.882;4.326;2023-02-25T09:57:12;11.50;99.90
17795;DHT22;9021;50.882;4.326;2023-02-25T09:59:39;11.60;99.90
17795;DHT22;9021;50.882;4.326;2023-02-25T10:02:39;11.60;99.90
17795;DHT22;9021;50.882;4.326;2023-02-25T10:05:35;11.80;99.90
17795;DHT22;9021;50.882;4.326;2023-02-25T10:08:21;11.80;99.20
17795;DHT22;9021;50.882;4.326;2023-02-25T10:11:10;11.90;99.60
17795;DHT22;9021;50.882;4.326;2023-02-25T10:16:41;12.60;98.80
17795;DHT22;9021;50.882;4.326;2023-02-25T10:22:17;13.70;97.40
17795;DHT22;9021;50.882;4.326;2023-02-25T10:24:50;14.70;96.70
17795;DHT22;9021;50.882;4.326;2023-02-25T10:27:31;14.50;95.30
17795;DHT22;9021;50.882;4.326;2023-02-25T10:30:14;14.60;95.20
17795;DHT22;9021;50.882;4.326;2023-02-25T10:32:42;14.10;95.60
17795;DHT22;9021;50.882;4.326;2023-02-25T10:35:26;13.20;96.70
17795;DHT22;9021;50.882;4.326;2023-02-25T10:37:53;13.00;97.10
17795;DHT22;9021;50.882;4.326;2023-02-25T10:40:21;12.70;97.60
17795;DHT22;9021;50.882;4.326;2023-02-25T10:42:50;12.50;97.30
17795;DHT22;9021;50.882;4.326;2023-02-25T10:45:20;12.30;97.30
17795;DHT22;9021;50.882;4.326;2023-02-25T10:47:54;11.80;97.80
17795;DHT22;9021;50.882;4.326;2023-02-25T10:50:26;11.60;98.40
17795;DHT22;9021;50.882;4.326;2023-02-25T10:52:52;11.10;98.90
17795;DHT22;9021;50.882;4.326;2023-02-25T11:00:56;10.00;99.90
17795;DHT22;9021;50.882;4.326;2023-02-25T11:03:23;10.10;99.90
17795;DHT22;9021;50.882;4.326;2023-02-25T11:05:49;10.00;99.90
17795;DHT22;9021;50.882;4.326;2023-02-25T11:08:28;10.20;99.90
17795;DHT22;9021;50.882;4.326;2023-02-25T11:11:01;10.40;99.10
17795;DHT22;9021;50.882;4.326;2023-02-25T11:13:30;10.80;99.40
17795;DHT22;9021;50.882;4.326;2023-02-25T11:15:57;11.20;98.80
17795;DHT22;9021;50.882;4.326;2023-02-25T11:18:30;12.10;97.90
17795;DHT22;9021;50.882;4.326;2023-02-25T11:20:59;13.30;96.80
17795;DHT22;9021;50.882;4.326;2023-02-25T11:23:33;14.40;95.50
17795;DHT22;9021;50.882;4.326;2023-02-25T11:26:00;15.80;93.30
17795;DHT22;9021;50.882;4.326;2023-02-25T11:28:30;16.70;92.10
17795;DHT22;9021;50.882;4.326;2023-02-25T11:31:09;18.10;91.50
17795;DHT22;9021;50.882;4.326;2023-02-25T11:33:39;19.30;89.30
17795;DHT22;9021;50.882;4.326;2023-02-25T11:36:07;20.30;85.80
17795;DHT22;9021;50.882;4.326;2023-02-25T11:38:36;20.50;82.60
17795;DHT22;9021;50.882;4.326;2023-02-25T11:41:03;20.40;82.00
17795;DHT22;9021;50.882;4.326;2023-02-25T11:43:39;20.70;79.50
17795;DHT22;9021;50.882;4.326;2023-02-25T11:46:23;20.40;79.30
17795;DHT22;9021;50.882;4.326;2023-02-25T11:49:05;19.70;80.00
17795;DHT22;9021;50.882;4.326;2023-02-25T11:52:32;19.40;79.70
17795;DHT22;9021;50.882;4.326;2023-02-25T11:57:38;17.10;82.20
17795;DHT22;9021;50.882;4.326;2023-02-25T12:00:21;15.80;83.50
17795;DHT22;9021;50.882;4.326;2023-02-25T12:08:18;13.50;89.30
17795;DHT22;9021;50.882;4.326;2023-02-25T12:11:18;12.60;91.40
17795;DHT22;9021;50.882;4.326;2023-02-25T12:14:09;11.50;93.80
17795;DHT22;9021;50.882;4.326;2023-02-25T12:30:42;10.10;99.90
17795;DHT22;9021;50.882;4.326;2023-02-25T12:33:43;10.30;99.90
17795;DHT22;9021;50.882;4.326;2023-02-25T12:36:28;10.60;99.90
17795;DHT22;9021;50.882;4.326;2023-02-25T12:39:19;11.60;99.90
17795;DHT22;9021;50.882;4.326;2023-02-25T12:42:00;13.90;97.00
17795;DHT22;9021;50.882;4.326;2023-02-25T12:47:49;17.60;92.00
17795;DHT22;9021;50.882;4.326;2023-02-25T12:53:16;21.60;80.20
17795;DHT22;9021;50.882;4.326;2023-02-25T12:56:06;22.80;78.00
17795;DHT22;9021;50.882;4.326;2023-02-25T13:20:42;21.90;68.20
17795;DHT22;9021;50.882;4.326;2023-02-25T13:40:34;14.50;79.50
17795;DHT22;9021;50.882;4.326;2023-02-25T13:57:10;18.70;71.60
17795;DHT22;9021;50.882;4.326;2023-02-25T14:19:36;15.80;72.40
17795;DHT22;9021;50.882;4.326;2023-02-25T14:22:27;15.80;73.80
17795;DHT22;9021;50.882;4.326;2023-02-25T14:25:26;15.30;75.40
17795;DHT22;9021;50.882;4.326;2023-02-25T14:31:01;14.30;77.30
17795;DHT22;9021;50.882;4.326;2023-02-25T14:36:27;14.50;78.10
17795;DHT22;9021;50.882;4.326;2023-02-25T14:44:37;13.70;79.30
17795;DHT22;9021;50.882;4.326;2023-02-25T14:47:13;13.20;78.60
17795;DHT22;9021;50.882;4.326;2023-02-25T14:55:27;12.30;80.20
17795;DHT22;9021;50.882;4.326;2023-02-25T14:58:29;12.10;80.50
17795;DHT22;9021;50.882;4.326;2023-02-25T15:17:26;12.10;83.00
17795;DHT22;9021;50.882;4.326;2023-02-25T15:19:57;12.00;83.30
17795;DHT22;9021;50.882;4.326;2023-02-25T15:22:28;11.90;83.90
17795;DHT22;9021;50.882;4.326;2023-02-25T15:27:53;11.40;84.40
17795;DHT22;9021;50.882;4.326;2023-02-25T15:30:21;11.20;85.70
17795;DHT22;9021;50.882;4.326;2023-02-25T15:43:00;11.60;85.30
17795;DHT22;9021;50.882;4.326;2023-02-25T15:53:08;11.80;85.50
17795;DHT22;9021;50.882;4.326;2023-02-25T15:55:42;11.80;85.30
17795;DHT22;9021;50.882;4.326;2023-02-25T16:01:01;11.50;85.40
17795;DHT22;9021;50.882;4.326;2023-02-25T16:03:46;11.60;85.70
17795;DHT22;9021;50.882;4.326;2023-02-25T16:08:54;11.40;85.70
17795;DHT22;9021;50.882;4.326;2023-02-25T16:13:50;11.30;80.60
17795;DHT22;9021;50.882;4.326;2023-02-25T16:16:16;11.30;80.50
17795;DHT22;9021;50.882;4.326;2023-02-25T16:18:45;11.20;79.30
17795;DHT22;9021;50.882;4.326;2023-02-25T16:21:51;11.10;80.60
17795;DHT22;9021;50.882;4.326;2023-02-25T16:24:15;11.10;81.20
17795;DHT22;9021;50.882;4.326;2023-02-25T16:27:00;10.90;81.40
17795;DHT22;9021;50.882;4.326;2023-02-25T16:40:28;10.50;81.60
17795;DHT22;9021;50.882;4.326;2023-02-25T16:42:56;10.40;80.80
17795;DHT22;9021;50.882;4.326;2023-02-25T16:45:35;10.30;81.30
17795;DHT22;9021;50.882;4.326;2023-02-25T16:48:12;10.20;80.40
17795;DHT22;9021;50.882;4.326;2023-02-25T16:50:39;10.10;81.80
17795;DHT22;9021;50.882;4.326;2023-02-25T16:53:19;10.10;82.00
17795;DHT22;9021;50.882;4.326;2023-02-25T16:55:46;10.00;81.90
17795;DHT22;9021;50.882;4.326;2023-02-25T16:58:20;9.90;82.00
17795;DHT22;9021;50.882;4.326;2023-02-25T17:01:00;9.70;79.00
17795;DHT22;9021;50.882;4.326;2023-02-25T17:03:44;9.50;78.80
17795;DHT22;9021;50.882;4.326;2023-02-25T17:06:16;9.30;80.10
17795;DHT22;9021;50.882;4.326;2023-02-25T17:08:47;9.20;79.70
17795;DHT22;9021;50.882;4.326;2023-02-25T17:11:18;9.10;80.00
17795;DHT22;9021;50.882;4.326;2023-02-25T17:13:45;9.00;80.40
17795;DHT22;9021;50.882;4.326;2023-02-25T17:16:30;8.90;80.20
17795;DHT22;9021;50.882;4.326;2023-02-25T17:19:00;8.90;81.30
17795;DHT22;9021;50.882;4.326;2023-02-25T17:21:37;9.00;80.90
17795;DHT22;9021;50.882;4.326;2023-02-25T17:24:10;8.80;81.60
17795;DHT22;9021;50.882;4.326;2023-02-25T17:26:40;8.80;81.20
17795;DHT22;9021;50.882;4.326;2023-02-25T17:29:10;8.70;81.70
17795;DHT22;9021;50.882;4.326;2023-02-25T17:31:51;8.70;82.10
17795;DHT22;9021;50.882;4.326;2023-02-25T17:34:32;8.70;81.90
17795;DHT22;9021;50.882;4.326;2023-02-25T17:37:03;8.60;82.30
17795;DHT22;9021;50.882;4.326;2023-02-25T17:39:30;8.40;83.10
17795;DHT22;9021;50.882;4.326;2023-02-25T17:41:55;8.40;83.00
17795;DHT22;9021;50.882;4.326;2023-02-25T17:47:10;8.30;83.20
17795;DHT22;9021;50.882;4.326;2023-02-25T17:49:37;8.10;82.70
17795;DHT22;9021;50.882;4.326;2023-02-25T17:52:07;8.10;83.50
17795;DHT22;9021;50.882;4.326;2023-02-25T17:54:45;8.10;83.00
17795;DHT22;9021;50.882;4.326;2023-02-25T17:57:19;8.10;83.20
17795;DHT22;9021;50.882;4.326;2023-02-25T17:59:55;8.00;83.60
17795;DHT22;9021;50.882;4.326;2023-02-25T18:04:47;8.10;83.40
17795;DHT22;9021;50.882;4.326;2023-02-25T18:07:29;8.00;84.00
17795;DHT22;9021;50.882;4.326;2023-02-25T18:09:57;8.00;84.30
17795;DHT22;9021;50.882;4.326;2023-02-25T18:14:55;7.80;84.70
17795;DHT22;9021;50.882;4.326;2023-02-25T18:17:33;7.80;85.30
17795;DHT22;9021;50.882;4.326;2023-02-25T18:20:03;7.70;84.70
17795;DHT22;9021;50.882;4.326;2023-02-25T18:22:46;7.60;85.20
17795;DHT22;9021;50.882;4.326;2023-02-25T18:25:34;7.70;85.00
17795;DHT22;9021;50.882;4.326;2023-02-25T18:27:59;7.60;84.90
17795;DHT22;9021;50.882;4.326;2023-02-25T18:30:27;7.50;85.30
17795;DHT22;9021;50.882;4.326;2023-02-25T18:32:54;7.60;84.70
17795;DHT22;9021;50.882;4.326;2023-02-25T18:35:22;7.60;85.40
17795;DHT22;9021;50.882;4.326;2023-02-25T18:37:50;7.60;84.90
17795;DHT22;9021;50.882;4.326;2023-02-25T18:42:51;7.50;86.00
17795;DHT22;9021;50.882;4.326;2023-02-25T18:45:19;7.50;86.00
17795;DHT22;9021;50.882;4.326;2023-02-25T18:47:46;7.40;86.00
17795;DHT22;9021;50.882;4.326;2023-02-25T18:50:12;7.50;86.40
17795;DHT22;9021;50.882;4.326;2023-02-25T18:52:38;7.30;86.60
17795;DHT22;9021;50.882;4.326;2023-02-25T18:55:05;7.20;86.90
17795;DHT22;9021;50.882;4.326;2023-02-25T18:57:31;7.30;87.10
17795;DHT22;9021;50.882;4.326;2023-02-25T18:59:57;7.10;87.50
17795;DHT22;9021;50.882;4.326;2023-02-25T19:02:34;7.20;87.90
17795;DHT22;9021;50.882;4.326;2023-02-25T19:05:01;7.10;87.20
17795;DHT22;9021;50.882;4.326;2023-02-25T19:07:29;7.20;87.60
17795;DHT22;9021;50.882;4.326;2023-02-25T19:09:55;7.10;87.90
17795;DHT22;9021;50.882;4.326;2023-02-25T19:12:23;7.10;87.90
17795;DHT22;9021;50.882;4.326;2023-02-25T19:14:58;7.10;88.10
17795;DHT22;9021;50.882;4.326;2023-02-25T19:17:25;7.20;88.00
17795;DHT22;9021;50.882;4.326;2023-02-25T19:19:51;7.00;87.70
17795;DHT22;9021;50.882;4.326;2023-02-25T19:22:17;7.00;87.70
17795;DHT22;9021;50.882;4.326;2023-02-25T19:24:45;7.00;88.10
17795;DHT22;9021;50.882;4.326;2023-02-25T19:27:24;6.90;88.30
17795;DHT22;9021;50.882;4.326;2023-02-25T19:29:53;6.90;88.50
17795;DHT22;9021;50.882;4.326;2023-02-25T19:32:20;6.90;88.50
17795;DHT22;9021;50.882;4.326;2023-02-25T19:34:46;6.80;88.80
17795;DHT22;9021;50.882;4.326;2023-02-25T19:37:13;6.80;88.90
17795;DHT22;9021;50.882;4.326;2023-02-25T19:39:40;6.80;88.80
17795;DHT22;9021;50.882;4.326;2023-02-25T19:42:06;6.80;88.70
17795;DHT22;9021;50.882;4.326;2023-02-25T19:44:33;6.60;89.10
17795;DHT22;9021;50.882;4.326;2023-02-25T19:46:59;6.60;89.10
17795;DHT22;9021;50.882;4.326;2023-02-25T19:49:25;6.60;89.30
17795;DHT22;9021;50.882;4.326;2023-02-25T19:51:52;6.50;89.80
17795;DHT22;9021;50.882;4.326;2023-02-25T19:54:18;6.60;89.30
17795;DHT22;9021;50.882;4.326;2023-02-25T19:56:44;6.60;88.90
17795;DHT22;9021;50.882;4.326;2023-02-25T19:59:09;6.60;89.10
17795;DHT22;9021;50.882;4.326;2023-02-25T20:01:36;6.50;89.30